ENSD/SDN METAR and TAF weather

Enter ICAO airport designator
Station Type Date Time Source
ENSD METAR 2021/10/22 19:20 UTC NOAA

ENSD 221920Z 30013G24KT 250V350 9999 -RA FEW008 SCT017 BKN032 06/02 Q1006 RMK WIND 1138FT VRB11G24KT


Station Type Date Time Source
ENSD Decoded METAR 2021/10/22 19:20 UTC NOAA

Sandane / Anda, Norway (ENSD) 61-50N 006-07E 60M
Oct 22, 2021 - 03:20 PM EDT / 2021.10.22 1920 UTC
Wind: from the WNW (300 degrees) at 15 MPH (13 KT) gusting to 28 MPH (24 KT) (direction variable):0
Visibility: greater than 7 mile(s):0
Sky conditions: mostly cloudy
Weather: light rain
Temperature: 42 F (6 C)
Dew Point: 35 F (2 C)
Relative Humidity: 75%
Pressure (altimeter): 29.71 in. Hg (1006 hPa)
ob: ENSD 221920Z 30013G24KT 250V350 9999 -RA FEW008 SCT017 BKN032 06/02 Q1006 RMK WIND 1138FT VRB11G24KT
cycle: 19

Station Type Date Time Source
ENSD TAF UTC NOAA

Error!

Example: see airport list